sensor_id;sensor_type;location;lat;lon;timestamp;temperature;humidity
15160;DHT22;7680;48.800;9.680;2024-01-10T00:00:43;-4.60;99.90
15160;DHT22;7680;48.800;9.680;2024-01-10T00:05:47;-4.60;99.90
15160;DHT22;7680;48.800;9.680;2024-01-10T00:10:52;-4.60;99.90
15160;DHT22;7680;48.800;9.680;2024-01-10T00:15:56;-4.60;99.90
15160;DHT22;7680;48.800;9.680;2024-01-10T00:21:02;-4.60;99.90
15160;DHT22;7680;48.800;9.680;2024-01-10T00:26:05;-4.50;99.90
15160;DHT22;7680;48.800;9.680;2024-01-10T00:31:08;-4.40;99.90
15160;DHT22;7680;48.800;9.680;2024-01-10T00:36:13;-4.40;99.90
15160;DHT22;7680;48.800;9.680;2024-01-10T00:41:16;-4.40;99.90
15160;DHT22;7680;48.800;9.680;2024-01-10T00:46:19;-4.40;99.90
15160;DHT22;7680;48.800;9.680;2024-01-10T00:51:24;-4.40;99.90
15160;DHT22;7680;48.800;9.680;2024-01-10T00:56:27;-4.40;99.90
15160;DHT22;7680;48.800;9.680;2024-01-10T01:01:30;-4.40;99.90
15160;DHT22;7680;48.800;9.680;2024-01-10T01:06:34;-4.40;99.90
15160;DHT22;7680;48.800;9.680;2024-01-10T01:11:38;-4.40;99.90
15160;DHT22;7680;48.800;9.680;2024-01-10T01:16:41;-4.30;99.90
15160;DHT22;7680;48.800;9.680;2024-01-10T01:21:45;-4.30;99.90
15160;DHT22;7680;48.800;9.680;2024-01-10T01:26:48;-4.30;99.90
15160;DHT22;7680;48.800;9.680;2024-01-10T01:31:51;-4.30;99.90
15160;DHT22;7680;48.800;9.680;2024-01-10T01:36:57;-4.30;99.90
15160;DHT22;7680;48.800;9.680;2024-01-10T01:42:00;-4.30;99.90
15160;DHT22;7680;48.800;9.680;2024-01-10T01:47:03;-4.30;99.90
15160;DHT22;7680;48.800;9.680;2024-01-10T01:52:08;-4.30;99.90
15160;DHT22;7680;48.800;9.680;2024-01-10T01:57:11;-4.20;99.90
15160;DHT22;7680;48.800;9.680;2024-01-10T02:02:16;-4.20;99.90
15160;DHT22;7680;48.800;9.680;2024-01-10T02:07:22;-4.20;99.90
15160;DHT22;7680;48.800;9.680;2024-01-10T02:12:25;-4.20;99.90
15160;DHT22;7680;48.800;9.680;2024-01-10T02:17:29;-4.20;99.90
15160;DHT22;7680;48.800;9.680;2024-01-10T02:22:33;-4.10;99.90
15160;DHT22;7680;48.800;9.680;2024-01-10T02:27:39;-4.20;99.90
15160;DHT22;7680;48.800;9.680;2024-01-10T02:32:42;-4.30;99.90
15160;DHT22;7680;48.800;9.680;2024-01-10T02:37:46;-4.20;99.90
15160;DHT22;7680;48.800;9.680;2024-01-10T02:42:53;-4.30;99.90
15160;DHT22;7680;48.800;9.680;2024-01-10T02:47:56;-4.20;99.90
15160;DHT22;7680;48.800;9.680;2024-01-10T02:52:59;-4.20;99.90
15160;DHT22;7680;48.800;9.680;2024-01-10T02:58:04;-4.30;99.90
15160;DHT22;7680;48.800;9.680;2024-01-10T03:03:07;-4.20;99.90
15160;DHT22;7680;48.800;9.680;2024-01-10T03:08:10;-4.20;99.90
15160;DHT22;7680;48.800;9.680;2024-01-10T03:13:15;-4.30;99.90
15160;DHT22;7680;48.800;9.680;2024-01-10T03:18:18;-4.30;99.90
15160;DHT22;7680;48.800;9.680;2024-01-10T03:23:21;-4.20;99.90
15160;DHT22;7680;48.800;9.680;2024-01-10T03:28:26;-4.20;99.90
15160;DHT22;7680;48.800;9.680;2024-01-10T03:33:29;-4.20;99.90
15160;DHT22;7680;48.800;9.680;2024-01-10T03:38:32;-4.10;99.90
15160;DHT22;7680;48.800;9.680;2024-01-10T03:43:36;-4.10;99.90
15160;DHT22;7680;48.800;9.680;2024-01-10T03:48:40;-4.10;99.90
15160;DHT22;7680;48.800;9.680;2024-01-10T03:53:50;-4.10;99.90
15160;DHT22;7680;48.800;9.680;2024-01-10T03:58:54;-4.10;99.90
15160;DHT22;7680;48.800;9.680;2024-01-10T04:03:57;-4.00;99.90
15160;DHT22;7680;48.800;9.680;2024-01-10T04:09:01;-3.90;99.90
15160;DHT22;7680;48.800;9.680;2024-01-10T04:14:06;-3.90;99.90
15160;DHT22;7680;48.800;9.680;2024-01-10T04:19:09;-3.80;99.90
15160;DHT22;7680;48.800;9.680;2024-01-10T04:24:12;-3.80;99.90
15160;DHT22;7680;48.800;9.680;2024-01-10T04:29:17;-4.00;99.90
15160;DHT22;7680;48.800;9.680;2024-01-10T04:34:20;-3.90;99.90
15160;DHT22;7680;48.800;9.680;2024-01-10T04:39:24;-3.90;99.90
15160;DHT22;7680;48.800;9.680;2024-01-10T04:44:29;-4.00;99.90
15160;DHT22;7680;48.800;9.680;2024-01-10T04:49:32;-4.00;99.90
15160;DHT22;7680;48.800;9.680;2024-01-10T04:54:35;-4.00;99.90
15160;DHT22;7680;48.800;9.680;2024-01-10T04:59:39;-4.00;99.90
15160;DHT22;7680;48.800;9.680;2024-01-10T05:04:42;-3.90;99.90
15160;DHT22;7680;48.800;9.680;2024-01-10T05:09:46;-4.00;99.90
15160;DHT22;7680;48.800;9.680;2024-01-10T05:14:50;-3.90;99.90
15160;DHT22;7680;48.800;9.680;2024-01-10T05:19:54;-3.80;99.90
15160;DHT22;7680;48.800;9.680;2024-01-10T05:24:57;-3.80;99.90
15160;DHT22;7680;48.800;9.680;2024-01-10T05:30:01;-3.70;99.90
15160;DHT22;7680;48.800;9.680;2024-01-10T05:35:05;-3.70;99.90
15160;DHT22;7680;48.800;9.680;2024-01-10T05:40:10;-3.70;99.90
15160;DHT22;7680;48.800;9.680;2024-01-10T05:45:15;-3.60;99.90
15160;DHT22;7680;48.800;9.680;2024-01-10T05:50:20;-3.60;99.90
15160;DHT22;7680;48.800;9.680;2024-01-10T05:55:23;-3.60;99.90
15160;DHT22;7680;48.800;9.680;2024-01-10T06:00:27;-3.50;99.90
15160;DHT22;7680;48.800;9.680;2024-01-10T06:05:30;-3.60;99.90
15160;DHT22;7680;48.800;9.680;2024-01-10T06:10:34;-3.60;99.90
15160;DHT22;7680;48.800;9.680;2024-01-10T06:15:40;-3.60;99.90
15160;DHT22;7680;48.800;9.680;2024-01-10T06:20:43;-3.60;99.90
15160;DHT22;7680;48.800;9.680;2024-01-10T06:25:46;-3.50;99.90
15160;DHT22;7680;48.800;9.680;2024-01-10T06:30:51;-3.50;99.90
15160;DHT22;7680;48.800;9.680;2024-01-10T06:35:54;-3.60;99.90
15160;DHT22;7680;48.800;9.680;2024-01-10T06:40:58;-3.50;99.90
15160;DHT22;7680;48.800;9.680;2024-01-10T06:46:03;-3.50;99.90
15160;DHT22;7680;48.800;9.680;2024-01-10T06:51:09;-3.40;99.90
15160;DHT22;7680;48.800;9.680;2024-01-10T06:56:14;-3.50;99.90
15160;DHT22;7680;48.800;9.680;2024-01-10T07:01:19;-3.50;99.90
15160;DHT22;7680;48.800;9.680;2024-01-10T07:06:24;-3.40;99.90
15160;DHT22;7680;48.800;9.680;2024-01-10T07:11:27;-3.40;99.90
15160;DHT22;7680;48.800;9.680;2024-01-10T07:16:32;-3.40;99.90
15160;DHT22;7680;48.800;9.680;2024-01-10T07:21:37;-3.40;99.90
15160;DHT22;7680;48.800;9.680;2024-01-10T07:26:41;-3.40;99.90
15160;DHT22;7680;48.800;9.680;2024-01-10T07:31:45;-3.30;99.90
15160;DHT22;7680;48.800;9.680;2024-01-10T07:36:50;-3.30;99.90
15160;DHT22;7680;48.800;9.680;2024-01-10T07:41:55;-3.30;99.90
15160;DHT22;7680;48.800;9.680;2024-01-10T07:47:00;-3.20;99.90
15160;DHT22;7680;48.800;9.680;2024-01-10T07:52:03;-3.30;99.90
15160;DHT22;7680;48.800;9.680;2024-01-10T07:57:07;-3.20;99.90
15160;DHT22;7680;48.800;9.680;2024-01-10T08:02:11;-3.20;99.90
15160;DHT22;7680;48.800;9.680;2024-01-10T08:07:14;-3.20;99.90
15160;DHT22;7680;48.800;9.680;2024-01-10T08:12:18;-3.30;99.90
15160;DHT22;7680;48.800;9.680;2024-01-10T08:17:22;-3.30;99.90
15160;DHT22;7680;48.800;9.680;2024-01-10T08:22:26;-3.10;99.90
15160;DHT22;7680;48.800;9.680;2024-01-10T08:27:29;-3.00;99.90
15160;DHT22;7680;48.800;9.680;2024-01-10T08:32:34;-2.90;99.90
15160;DHT22;7680;48.800;9.680;2024-01-10T08:37:38;-2.70;99.90
15160;DHT22;7680;48.800;9.680;2024-01-10T08:42:44;-2.30;99.90
15160;DHT22;7680;48.800;9.680;2024-01-10T08:47:48;-2.20;99.90
15160;DHT22;7680;48.800;9.680;2024-01-10T08:52:52;-1.80;99.90
15160;DHT22;7680;48.800;9.680;2024-01-10T08:57:55;-1.50;99.90
15160;DHT22;7680;48.800;9.680;2024-01-10T09:03:00;-1.30;99.90
15160;DHT22;7680;48.800;9.680;2024-01-10T09:08:04;-0.90;99.90
15160;DHT22;7680;48.800;9.680;2024-01-10T09:13:07;-0.70;99.90
15160;DHT22;7680;48.800;9.680;2024-01-10T09:18:12;-0.90;99.90
15160;DHT22;7680;48.800;9.680;2024-01-10T09:23:15;-0.70;99.90
15160;DHT22;7680;48.800;9.680;2024-01-10T09:28:18;-1.00;99.90
15160;DHT22;7680;48.800;9.680;2024-01-10T09:33:23;-1.00;99.90
15160;DHT22;7680;48.800;9.680;2024-01-10T09:38:27;-0.90;99.90
15160;DHT22;7680;48.800;9.680;2024-01-10T09:43:31;-0.90;99.90
15160;DHT22;7680;48.800;9.680;2024-01-10T09:48:36;-0.70;99.90
15160;DHT22;7680;48.800;9.680;2024-01-10T09:53:44;-0.50;99.90
15160;DHT22;7680;48.800;9.680;2024-01-10T09:58:53;-0.10;99.90
15160;DHT22;7680;48.800;9.680;2024-01-10T10:04:01;-0.40;99.90
15160;DHT22;7680;48.800;9.680;2024-01-10T10:09:04;-0.50;99.90
15160;DHT22;7680;48.800;9.680;2024-01-10T10:14:14;-0.10;99.90
15160;DHT22;7680;48.800;9.680;2024-01-10T10:19:24;-0.30;99.90
15160;DHT22;7680;48.800;9.680;2024-01-10T10:24:41;-0.30;99.90
15160;DHT22;7680;48.800;9.680;2024-01-10T10:29:46;0.00;99.90
15160;DHT22;7680;48.800;9.680;2024-01-10T10:34:50;-0.20;99.90
15160;DHT22;7680;48.800;9.680;2024-01-10T10:39:54;0.10;99.90
15160;DHT22;7680;48.800;9.680;2024-01-10T10:45:02;0.10;99.90
15160;DHT22;7680;48.800;9.680;2024-01-10T10:50:12;0.10;99.90
15160;DHT22;7680;48.800;9.680;2024-01-10T10:55:17;0.30;99.90
15160;DHT22;7680;48.800;9.680;2024-01-10T11:00:21;0.30;99.90
15160;DHT22;7680;48.800;9.680;2024-01-10T11:05:31;0.00;99.90
15160;DHT22;7680;48.800;9.680;2024-01-10T11:10:38;0.20;99.90
15160;DHT22;7680;48.800;9.680;2024-01-10T11:21:45;0.60;99.90
15160;DHT22;7680;48.800;9.680;2024-01-10T11:27:06;0.70;99.90
15160;DHT22;7680;48.800;9.680;2024-01-10T11:32:14;1.00;99.90
15160;DHT22;7680;48.800;9.680;2024-01-10T11:37:19;0.90;99.90
15160;DHT22;7680;48.800;9.680;2024-01-10T11:42:23;0.80;99.90
15160;DHT22;7680;48.800;9.680;2024-01-10T11:47:26;0.90;99.90
15160;DHT22;7680;48.800;9.680;2024-01-10T11:52:34;0.80;99.90
15160;DHT22;7680;48.800;9.680;2024-01-10T11:57:38;0.90;99.90
15160;DHT22;7680;48.800;9.680;2024-01-10T12:02:42;0.90;99.90
15160;DHT22;7680;48.800;9.680;2024-01-10T12:07:52;1.10;99.90
15160;DHT22;7680;48.800;9.680;2024-01-10T12:12:55;1.00;99.90
15160;DHT22;7680;48.800;9.680;2024-01-10T12:17:59;1.20;99.90
15160;DHT22;7680;48.800;9.680;2024-01-10T12:23:04;1.00;99.90
15160;DHT22;7680;48.800;9.680;2024-01-10T12:28:08;1.20;99.90
15160;DHT22;7680;48.800;9.680;2024-01-10T12:33:11;1.10;99.90
15160;DHT22;7680;48.800;9.680;2024-01-10T12:38:17;1.00;99.90
15160;DHT22;7680;48.800;9.680;2024-01-10T12:43:20;0.90;99.90
15160;DHT22;7680;48.800;9.680;2024-01-10T12:48:23;1.40;99.90
15160;DHT22;7680;48.800;9.680;2024-01-10T12:53:29;1.30;99.90
15160;DHT22;7680;48.800;9.680;2024-01-10T12:58:33;1.30;99.90
15160;DHT22;7680;48.800;9.680;2024-01-10T13:03:38;1.40;99.90
15160;DHT22;7680;48.800;9.680;2024-01-10T13:08:43;1.20;99.90
15160;DHT22;7680;48.800;9.680;2024-01-10T13:13:47;1.10;99.90
15160;DHT22;7680;48.800;9.680;2024-01-10T13:18:50;1.20;99.90
15160;DHT22;7680;48.800;9.680;2024-01-10T13:23:56;1.20;99.90
15160;DHT22;7680;48.800;9.680;2024-01-10T13:28:59;1.30;99.90
15160;DHT22;7680;48.800;9.680;2024-01-10T13:34:04;1.20;99.90
15160;DHT22;7680;48.800;9.680;2024-01-10T13:39:10;1.40;99.90
15160;DHT22;7680;48.800;9.680;2024-01-10T13:44:17;1.40;99.90
15160;DHT22;7680;48.800;9.680;2024-01-10T13:49:21;1.70;99.90
15160;DHT22;7680;48.800;9.680;2024-01-10T13:54:25;1.70;99.90
15160;DHT22;7680;48.800;9.680;2024-01-10T13:59:28;2.00;99.90
15160;DHT22;7680;48.800;9.680;2024-01-10T14:04:32;1.60;99.90
15160;DHT22;7680;48.800;9.680;2024-01-10T14:09:36;1.50;99.90
15160;DHT22;7680;48.800;9.680;2024-01-10T14:14:39;1.70;99.90
15160;DHT22;7680;48.800;9.680;2024-01-10T14:19:42;1.60;99.90
15160;DHT22;7680;48.800;9.680;2024-01-10T14:24:47;1.70;99.90
15160;DHT22;7680;48.800;9.680;2024-01-10T14:29:50;1.70;99.90
15160;DHT22;7680;48.800;9.680;2024-01-10T14:34:53;1.60;99.90
15160;DHT22;7680;48.800;9.680;2024-01-10T14:39:58;1.50;99.90
15160;DHT22;7680;48.800;9.680;2024-01-10T14:45:01;1.50;99.90
15160;DHT22;7680;48.800;9.680;2024-01-10T14:50:06;1.40;99.90
15160;DHT22;7680;48.800;9.680;2024-01-10T14:55:11;1.40;99.90
15160;DHT22;7680;48.800;9.680;2024-01-10T15:00:15;1.50;99.90
15160;DHT22;7680;48.800;9.680;2024-01-10T15:05:19;1.40;99.90
15160;DHT22;7680;48.800;9.680;2024-01-10T15:10:25;1.30;99.90
15160;DHT22;7680;48.800;9.680;2024-01-10T15:15:31;1.10;99.90
15160;DHT22;7680;48.800;9.680;2024-01-10T15:20:34;1.00;99.90
15160;DHT22;7680;48.800;9.680;2024-01-10T15:25:39;0.80;99.90
15160;DHT22;7680;48.800;9.680;2024-01-10T15:30:42;0.70;99.90
15160;DHT22;7680;48.800;9.680;2024-01-10T15:35:49;0.50;99.90
15160;DHT22;7680;48.800;9.680;2024-01-10T15:40:55;0.30;99.90
15160;DHT22;7680;48.800;9.680;2024-01-10T15:46:02;0.20;99.90
15160;DHT22;7680;48.800;9.680;2024-01-10T15:51:06;0.00;99.90
15160;DHT22;7680;48.800;9.680;2024-01-10T15:56:11;-0.20;99.90
15160;DHT22;7680;48.800;9.680;2024-01-10T16:01:15;-0.40;99.90
15160;DHT22;7680;48.800;9.680;2024-01-10T16:06:18;-0.50;99.90
15160;DHT22;7680;48.800;9.680;2024-01-10T16:11:23;-0.60;99.90
15160;DHT22;7680;48.800;9.680;2024-01-10T16:16:27;-0.70;99.90
15160;DHT22;7680;48.800;9.680;2024-01-10T16:21:32;-0.90;99.90
15160;DHT22;7680;48.800;9.680;2024-01-10T16:26:36;-1.00;99.90
15160;DHT22;7680;48.800;9.680;2024-01-10T16:31:40;-1.10;99.90
15160;DHT22;7680;48.800;9.680;2024-01-10T16:36:43;-1.20;99.90
15160;DHT22;7680;48.800;9.680;2024-01-10T16:41:47;-1.20;99.90
15160;DHT22;7680;48.800;9.680;2024-01-10T16:46:50;-1.30;99.90
15160;DHT22;7680;48.800;9.680;2024-01-10T16:51:55;-1.40;99.90
15160;DHT22;7680;48.800;9.680;2024-01-10T16:56:59;-1.40;99.90
15160;DHT22;7680;48.800;9.680;2024-01-10T17:02:02;-1.40;99.90
15160;DHT22;7680;48.800;9.680;2024-01-10T17:07:06;-1.20;99.90
15160;DHT22;7680;48.800;9.680;2024-01-10T17:12:11;-1.20;99.90
15160;DHT22;7680;48.800;9.680;2024-01-10T17:17:14;-1.30;99.90
15160;DHT22;7680;48.800;9.680;2024-01-10T17:22:18;-1.40;99.90
15160;DHT22;7680;48.800;9.680;2024-01-10T17:27:22;-1.60;99.90
15160;DHT22;7680;48.800;9.680;2024-01-10T17:32:25;-1.70;99.90
15160;DHT22;7680;48.800;9.680;2024-01-10T17:37:29;-1.70;99.90
15160;DHT22;7680;48.800;9.680;2024-01-10T17:42:33;-1.80;99.90
15160;DHT22;7680;48.800;9.680;2024-01-10T17:47:36;-1.80;99.90
15160;DHT22;7680;48.800;9.680;2024-01-10T17:52:40;-1.90;99.90
15160;DHT22;7680;48.800;9.680;2024-01-10T17:57:44;-1.90;99.90
15160;DHT22;7680;48.800;9.680;2024-01-10T18:02:47;-1.90;99.90
15160;DHT22;7680;48.800;9.680;2024-01-10T18:07:50;-2.00;99.90
15160;DHT22;7680;48.800;9.680;2024-01-10T18:12:55;-2.10;99.90
15160;DHT22;7680;48.800;9.680;2024-01-10T18:17:59;-2.10;99.90
15160;DHT22;7680;48.800;9.680;2024-01-10T18:23:02;-2.30;99.90
15160;DHT22;7680;48.800;9.680;2024-01-10T18:28:07;-2.30;99.90
15160;DHT22;7680;48.800;9.680;2024-01-10T18:33:10;-2.40;99.90
15160;DHT22;7680;48.800;9.680;2024-01-10T18:38:13;-2.40;99.90
15160;DHT22;7680;48.800;9.680;2024-01-10T18:43:20;-2.50;99.90
15160;DHT22;7680;48.800;9.680;2024-01-10T18:48:23;-2.50;99.90
15160;DHT22;7680;48.800;9.680;2024-01-10T18:53:27;-2.60;99.90
15160;DHT22;7680;48.800;9.680;2024-01-10T18:58:32;-2.60;99.90
15160;DHT22;7680;48.800;9.680;2024-01-10T19:03:35;-2.60;99.90
15160;DHT22;7680;48.800;9.680;2024-01-10T19:08:38;-2.70;99.90
15160;DHT22;7680;48.800;9.680;2024-01-10T19:13:43;-2.60;99.90
15160;DHT22;7680;48.800;9.680;2024-01-10T19:18:50;-2.70;99.90
15160;DHT22;7680;48.800;9.680;2024-01-10T19:23:53;-2.70;99.90
15160;DHT22;7680;48.800;9.680;2024-01-10T19:28:58;-2.80;99.90
15160;DHT22;7680;48.800;9.680;2024-01-10T19:34:01;-2.80;99.90
15160;DHT22;7680;48.800;9.680;2024-01-10T19:39:04;-2.70;99.90
15160;DHT22;7680;48.800;9.680;2024-01-10T19:44:09;-2.80;99.90
15160;DHT22;7680;48.800;9.680;2024-01-10T19:49:12;-2.80;99.90
15160;DHT22;7680;48.800;9.680;2024-01-10T19:54:15;-2.80;99.90
15160;DHT22;7680;48.800;9.680;2024-01-10T19:59:20;-2.90;99.90
15160;DHT22;7680;48.800;9.680;2024-01-10T20:04:23;-2.90;99.90
15160;DHT22;7680;48.800;9.680;2024-01-10T20:09:26;-3.00;99.90
15160;DHT22;7680;48.800;9.680;2024-01-10T20:14:30;-3.00;99.90
15160;DHT22;7680;48.800;9.680;2024-01-10T20:19:40;-3.10;99.90
15160;DHT22;7680;48.800;9.680;2024-01-10T20:24:43;-3.30;99.90
15160;DHT22;7680;48.800;9.680;2024-01-10T20:29:48;-3.30;99.90
15160;DHT22;7680;48.800;9.680;2024-01-10T20:34:51;-3.30;99.90
15160;DHT22;7680;48.800;9.680;2024-01-10T20:39:57;-3.30;99.90
15160;DHT22;7680;48.800;9.680;2024-01-10T20:45:01;-3.40;99.90
15160;DHT22;7680;48.800;9.680;2024-01-10T20:50:06;-3.40;99.90
15160;DHT22;7680;48.800;9.680;2024-01-10T20:55:10;-3.40;99.90
15160;DHT22;7680;48.800;9.680;2024-01-10T21:00:15;-3.40;99.90
15160;DHT22;7680;48.800;9.680;2024-01-10T21:05:24;-3.50;99.90
15160;DHT22;7680;48.800;9.680;2024-01-10T21:10:27;-3.60;99.90
15160;DHT22;7680;48.800;9.680;2024-01-10T21:15:32;-3.60;99.90
15160;DHT22;7680;48.800;9.680;2024-01-10T21:20:35;-3.70;99.90
15160;DHT22;7680;48.800;9.680;2024-01-10T21:25:38;-3.70;99.90
15160;DHT22;7680;48.800;9.680;2024-01-10T21:30:44;-3.70;99.90
15160;DHT22;7680;48.800;9.680;2024-01-10T21:35:49;-3.70;99.90
15160;DHT22;7680;48.800;9.680;2024-01-10T21:40:52;-3.70;99.90
15160;DHT22;7680;48.800;9.680;2024-01-10T21:45:57;-3.90;99.90
15160;DHT22;7680;48.800;9.680;2024-01-10T21:51:01;-3.80;99.90
15160;DHT22;7680;48.800;9.680;2024-01-10T21:56:04;-3.80;99.90
15160;DHT22;7680;48.800;9.680;2024-01-10T22:01:12;-3.90;99.90
15160;DHT22;7680;48.800;9.680;2024-01-10T22:06:15;-3.90;99.90
15160;DHT22;7680;48.800;9.680;2024-01-10T22:11:19;-4.00;99.90
15160;DHT22;7680;48.800;9.680;2024-01-10T22:16:23;-4.00;99.90
15160;DHT22;7680;48.800;9.680;2024-01-10T22:21:27;-3.90;99.90
15160;DHT22;7680;48.800;9.680;2024-01-10T22:26:30;-3.90;99.90
15160;DHT22;7680;48.800;9.680;2024-01-10T22:31:35;-4.00;99.90
15160;DHT22;7680;48.800;9.680;2024-01-10T22:36:38;-4.00;99.90
15160;DHT22;7680;48.800;9.680;2024-01-10T22:41:41;-4.10;99.90
15160;DHT22;7680;48.800;9.680;2024-01-10T22:46:46;-4.20;99.90
15160;DHT22;7680;48.800;9.680;2024-01-10T22:51:50;-4.10;99.90
15160;DHT22;7680;48.800;9.680;2024-01-10T22:56:53;-4.10;99.90
15160;DHT22;7680;48.800;9.680;2024-01-10T23:01:57;-4.20;99.90
15160;DHT22;7680;48.800;9.680;2024-01-10T23:07:01;-4.20;99.90
15160;DHT22;7680;48.800;9.680;2024-01-10T23:12:05;-4.20;99.90
15160;DHT22;7680;48.800;9.680;2024-01-10T23:17:10;-4.30;99.90
15160;DHT22;7680;48.800;9.680;2024-01-10T23:22:13;-4.40;99.90
15160;DHT22;7680;48.800;9.680;2024-01-10T23:27:17;-4.50;99.90
15160;DHT22;7680;48.800;9.680;2024-01-10T23:32:23;-4.40;99.90
15160;DHT22;7680;48.800;9.680;2024-01-10T23:37:26;-4.50;99.90
15160;DHT22;7680;48.800;9.680;2024-01-10T23:42:30;-4.60;99.90
15160;DHT22;7680;48.800;9.680;2024-01-10T23:47:34;-4.70;99.90
15160;DHT22;7680;48.800;9.680;2024-01-10T23:52:38;-4.70;99.90
15160;DHT22;7680;48.800;9.680;2024-01-10T23:57:41;-4.70;99.90
